sensor_id;sensor_type;location;lat;lon;timestamp;P1;durP1;ratioP1;P2;durP2;ratioP2
36137;SDS011;67787;50.074;21.904;2023-08-06T06:00:44;23.60;;;15.70;;
36137;SDS011;67787;50.074;21.904;2023-08-06T06:03:17;25.20;;;16.90;;
36137;SDS011;67787;50.074;21.904;2023-08-06T06:05:48;24.10;;;15.70;;
36137;SDS011;67787;50.074;21.904;2023-08-06T06:08:21;23.90;;;15.50;;
36137;SDS011;67787;50.074;21.904;2023-08-06T06:10:48;24.60;;;16.30;;
36137;SDS011;67787;50.074;21.904;2023-08-06T06:13:15;23.70;;;16.00;;
36137;SDS011;67787;50.074;21.904;2023-08-06T06:15:43;26.50;;;16.80;;
36137;SDS011;67787;50.074;21.904;2023-08-06T06:18:13;26.40;;;17.20;;
36137;SDS011;67787;50.074;21.904;2023-08-06T06:20:44;25.10;;;16.00;;
36137;SDS011;67787;50.074;21.904;2023-08-06T06:23:18;27.00;;;14.60;;
36137;SDS011;67787;50.074;21.904;2023-08-06T07:03:19;15.50;;;8.80;;
36137;SDS011;67787;50.074;21.904;2023-08-06T07:05:56;15.10;;;8.30;;
36137;SDS011;67787;50.074;21.904;2023-08-06T07:08:26;15.50;;;8.20;;
36137;SDS011;67787;50.074;21.904;2023-08-06T07:11:44;16.10;;;7.80;;
36137;SDS011;67787;50.074;21.904;2023-08-06T07:14:12;16.50;;;8.90;;
36137;SDS011;67787;50.074;21.904;2023-08-06T07:17:25;16.60;;;9.00;;
36137;SDS011;67787;50.074;21.904;2023-08-06T07:19:53;17.70;;;10.00;;
36137;SDS011;67787;50.074;21.904;2023-08-06T07:22:22;15.50;;;8.90;;
36137;SDS011;67787;50.074;21.904;2023-08-06T07:24:50;16.30;;;8.10;;
36137;SDS011;67787;50.074;21.904;2023-08-06T07:27:17;15.10;;;8.00;;
36137;SDS011;67787;50.074;21.904;2023-08-06T07:29:44;18.10;;;8.20;;
36137;SDS011;67787;50.074;21.904;2023-08-06T07:32:12;15.00;;;8.60;;
36137;SDS011;67787;50.074;21.904;2023-08-06T07:34:40;14.40;;;7.60;;
36137;SDS011;67787;50.074;21.904;2023-08-06T07:37:10;14.20;;;7.70;;
36137;SDS011;67787;50.074;21.904;2023-08-06T07:39:57;16.90;;;8.60;;
36137;SDS011;67787;50.074;21.904;2023-08-06T07:42:26;14.60;;;8.50;;
36137;SDS011;67787;50.074;21.904;2023-08-06T07:45:14;14.20;;;7.90;;
36137;SDS011;67787;50.074;21.904;2023-08-06T07:47:42;15.20;;;8.70;;
36137;SDS011;67787;50.074;21.904;2023-08-06T07:50:09;15.50;;;8.20;;
36137;SDS011;67787;50.074;21.904;2023-08-06T09:24:44;10.60;;;6.30;;
36137;SDS011;67787;50.074;21.904;2023-08-06T09:30:43;12.30;;;5.90;;
36137;SDS011;67787;50.074;21.904;2023-08-06T09:33:48;9.20;;;5.10;;
36137;SDS011;67787;50.074;21.904;2023-08-06T09:36:59;8.50;;;4.40;;
36137;SDS011;67787;50.074;21.904;2023-08-06T09:40:24;6.20;;;3.90;;
36137;SDS011;67787;50.074;21.904;2023-08-06T09:49:43;6.60;;;3.50;;
36137;SDS011;67787;50.074;21.904;2023-08-06T09:52:13;5.60;;;4.10;;
36137;SDS011;67787;50.074;21.904;2023-08-06T09:55:16;4.50;;;3.40;;
36137;SDS011;67787;50.074;21.904;2023-08-06T09:58:35;6.40;;;3.10;;
36137;SDS011;67787;50.074;21.904;2023-08-06T10:32:49;5.20;;;2.60;;
36137;SDS011;67787;50.074;21.904;2023-08-06T10:35:40;3.40;;;2.50;;
36137;SDS011;67787;50.074;21.904;2023-08-06T10:38:57;3.00;;;2.20;;
36137;SDS011;67787;50.074;21.904;2023-08-06T10:47:52;2.50;;;2.00;;
36137;SDS011;67787;50.074;21.904;2023-08-06T10:57:08;3.90;;;2.40;;
36137;SDS011;67787;50.074;21.904;2023-08-06T11:00:49;2.20;;;1.70;;
36137;SDS011;67787;50.074;21.904;2023-08-06T11:04:00;2.10;;;1.90;;
36137;SDS011;67787;50.074;21.904;2023-08-06T11:10:17;2.30;;;2.10;;
36137;SDS011;67787;50.074;21.904;2023-08-06T11:19:54;3.00;;;2.50;;
36137;SDS011;67787;50.074;21.904;2023-08-06T11:22:27;3.40;;;2.10;;
36137;SDS011;67787;50.074;21.904;2023-08-06T11:25:44;2.20;;;1.90;;
36137;SDS011;67787;50.074;21.904;2023-08-06T11:28:41;2.50;;;2.10;;
36137;SDS011;67787;50.074;21.904;2023-08-06T11:35:16;3.00;;;2.20;;
36137;SDS011;67787;50.074;21.904;2023-08-06T11:37:58;2.60;;;2.30;;
36137;SDS011;67787;50.074;21.904;2023-08-06T11:40:51;3.20;;;2.30;;
36137;SDS011;67787;50.074;21.904;2023-08-06T11:44:00;1.60;;;1.50;;
36137;SDS011;67787;50.074;21.904;2023-08-06T11:46:56;3.00;;;2.20;;
36137;SDS011;67787;50.074;21.904;2023-08-06T11:49:58;2.60;;;2.10;;
36137;SDS011;67787;50.074;21.904;2023-08-06T11:52:53;2.10;;;1.90;;
36137;SDS011;67787;50.074;21.904;2023-08-06T11:55:24;3.60;;;1.80;;
36137;SDS011;67787;50.074;21.904;2023-08-06T11:58:30;1.70;;;1.50;;
36137;SDS011;67787;50.074;21.904;2023-08-06T12:07:15;4.20;;;1.60;;
36137;SDS011;67787;50.074;21.904;2023-08-06T12:13:09;1.70;;;1.60;;
36137;SDS011;67787;50.074;21.904;2023-08-06T12:16:06;3.00;;;1.70;;
36137;SDS011;67787;50.074;21.904;2023-08-06T12:18:34;2.50;;;1.70;;
36137;SDS011;67787;50.074;21.904;2023-08-06T12:21:21;2.70;;;1.50;;
36137;SDS011;67787;50.074;21.904;2023-08-06T12:24:25;1.50;;;1.30;;
36137;SDS011;67787;50.074;21.904;2023-08-06T12:27:33;2.20;;;1.70;;
36137;SDS011;67787;50.074;21.904;2023-08-06T12:30:21;1.70;;;1.60;;
36137;SDS011;67787;50.074;21.904;2023-08-06T12:33:22;3.30;;;1.90;;
36137;SDS011;67787;50.074;21.904;2023-08-06T12:36:19;1.40;;;1.20;;
36137;SDS011;67787;50.074;21.904;2023-08-06T12:38:59;3.60;;;1.80;;
36137;SDS011;67787;50.074;21.904;2023-08-06T12:42:04;1.80;;;1.60;;
36137;SDS011;67787;50.074;21.904;2023-08-06T12:44:38;4.70;;;1.80;;
36137;SDS011;67787;50.074;21.904;2023-08-06T12:47:56;2.20;;;1.90;;
36137;SDS011;67787;50.074;21.904;2023-08-06T12:50:39;1.70;;;1.60;;
36137;SDS011;67787;50.074;21.904;2023-08-06T13:02:36;2.60;;;1.60;;
36137;SDS011;67787;50.074;21.904;2023-08-06T13:05:54;1.70;;;1.40;;
36137;SDS011;67787;50.074;21.904;2023-08-06T13:08:41;3.30;;;1.70;;
36137;SDS011;67787;50.074;21.904;2023-08-06T13:11:08;3.80;;;2.00;;
36137;SDS011;67787;50.074;21.904;2023-08-06T13:14:12;5.20;;;1.60;;
36137;SDS011;67787;50.074;21.904;2023-08-06T13:19:13;1.40;;;1.20;;
36137;SDS011;67787;50.074;21.904;2023-08-06T14:46:28;1.90;;;1.20;;
36137;SDS011;67787;50.074;21.904;2023-08-06T14:49:00;1.30;;;1.10;;
36137;SDS011;67787;50.074;21.904;2023-08-06T15:04:41;3.10;;;0.80;;
36137;SDS011;67787;50.074;21.904;2023-08-06T16:02:41;0.90;;;0.40;;
36137;SDS011;67787;50.074;21.904;2023-08-06T16:05:13;0.90;;;0.60;;
36137;SDS011;67787;50.074;21.904;2023-08-06T16:35:18;1.10;;;0.40;;
36137;SDS011;67787;50.074;21.904;2023-08-06T16:37:52;0.90;;;0.60;;
36137;SDS011;67787;50.074;21.904;2023-08-06T16:41:11;1.90;;;0.40;;
36137;SDS011;67787;50.074;21.904;2023-08-06T18:19:31;4.80;;;2.20;;
36137;SDS011;67787;50.074;21.904;2023-08-06T18:22:04;4.40;;;2.10;;
